createdAt,value
2019-02-24T00:01:34.798Z,21.00
2019-02-24T00:04:48.616Z,21.17
2019-02-24T00:08:03.056Z,22.23
2019-02-24T00:11:16.912Z,20.70
2019-02-24T00:14:30.743Z,20.87
2019-02-24T00:17:44.587Z,20.97
2019-02-24T00:20:58.487Z,22.23
2019-02-24T00:24:12.335Z,20.77
2019-02-24T00:27:26.202Z,19.33
2019-02-24T00:30:40.155Z,21.37
2019-02-24T00:33:54.007Z,19.77
2019-02-24T00:37:07.884Z,19.87
2019-02-24T00:40:21.706Z,22.77
2019-02-24T00:43:35.557Z,23.80
2019-02-24T00:46:49.440Z,22.00
2019-02-24T00:50:06.177Z,20.13
2019-02-24T00:53:20.035Z,22.43
2019-02-24T00:56:33.865Z,23.60
2019-02-24T00:59:47.710Z,21.87
2019-02-24T01:03:01.585Z,22.50
2019-02-24T01:06:15.526Z,19.13
2019-02-24T01:09:29.483Z,20.67
2019-02-24T01:12:43.611Z,20.60
2019-02-24T01:15:57.420Z,21.17
2019-02-24T01:19:11.296Z,19.53
2019-02-24T01:22:25.112Z,20.00
2019-02-24T01:25:39.113Z,18.90
2019-02-24T01:28:52.963Z,22.80
2019-02-24T01:32:06.784Z,18.73
2019-02-24T01:35:20.741Z,21.20
2019-02-24T01:38:34.587Z,17.77
2019-02-24T01:41:48.422Z,20.03
2019-02-24T01:45:03.774Z,22.10
2019-02-24T01:48:17.619Z,19.03
2019-02-24T01:51:31.472Z,19.97
2019-02-24T01:54:45.336Z,24.17
2019-02-24T01:57:59.166Z,20.07
2019-02-24T02:01:13.122Z,17.53
2019-02-24T02:04:26.961Z,16.43
2019-02-24T02:07:40.792Z,18.80
2019-02-24T02:10:54.620Z,18.90
2019-02-24T02:14:08.474Z,19.97
2019-02-24T02:17:22.293Z,17.27
2019-02-24T02:20:36.270Z,17.43
2019-02-24T02:23:50.087Z,19.57
2019-02-24T02:27:03.954Z,17.87
2019-02-24T02:30:17.915Z,16.23
2019-02-24T02:33:31.724Z,17.97
2019-02-24T02:36:45.583Z,17.57
2019-02-24T02:39:59.522Z,17.57
2019-02-24T02:43:13.357Z,14.40
2019-02-24T02:46:27.255Z,17.10
2019-02-24T02:49:41.143Z,16.13
2019-02-24T02:52:54.968Z,15.93
2019-02-24T02:56:08.841Z,18.37
2019-02-24T02:59:22.801Z,17.53
2019-02-24T03:02:36.760Z,16.37
2019-02-24T03:05:55.440Z,15.90
2019-02-24T03:09:10.283Z,18.93
2019-02-24T03:12:24.121Z,14.57
2019-02-24T03:15:38.054Z,16.93
2019-02-24T03:18:51.913Z,17.13
2019-02-24T03:22:05.820Z,17.53
2019-02-24T03:25:19.653Z,15.20
2019-02-24T03:28:33.487Z,19.43
2019-02-24T03:31:47.320Z,19.40
2019-02-24T03:35:01.172Z,16.33
2019-02-24T03:38:15.007Z,18.13
2019-02-24T03:41:28.845Z,19.83
2019-02-24T03:44:42.673Z,17.73
2019-02-24T03:47:56.526Z,17.80
2019-02-24T03:51:10.341Z,17.77
2019-02-24T03:54:24.182Z,16.10
2019-02-24T03:57:38.095Z,16.83
2019-02-24T04:00:51.944Z,15.60
2019-02-24T04:04:05.996Z,17.33
2019-02-24T04:07:19.858Z,18.70
2019-02-24T04:10:33.691Z,18.40
2019-02-24T04:13:47.655Z,17.43
2019-02-24T04:17:01.473Z,15.53
2019-02-24T04:20:15.321Z,14.97
2019-02-24T04:23:29.159Z,17.03
2019-02-24T04:26:43.045Z,23.00
2019-02-24T04:29:56.893Z,18.27
2019-02-24T04:33:10.734Z,19.03
2019-02-24T04:36:24.597Z,18.97
2019-02-24T04:39:38.424Z,18.23
2019-02-24T04:42:52.260Z,20.63
2019-02-24T04:46:06.487Z,19.23
2019-02-24T04:49:20.312Z,20.27
2019-02-24T04:52:34.157Z,19.03
2019-02-24T04:55:47.992Z,17.60
2019-02-24T04:59:01.830Z,18.17
2019-02-24T05:02:15.680Z,16.93
2019-02-24T05:05:29.526Z,19.10
2019-02-24T05:08:43.365Z,19.23
2019-02-24T05:11:57.196Z,17.67
2019-02-24T05:15:11.037Z,16.07
2019-02-24T05:18:24.894Z,18.87
2019-02-24T05:21:38.745Z,19.10
2019-02-24T05:24:53.043Z,16.50
2019-02-24T05:28:06.886Z,18.93
2019-02-24T05:31:20.716Z,17.37
2019-02-24T05:34:34.612Z,14.73
2019-02-24T05:37:48.455Z,15.03
2019-02-24T05:41:02.286Z,16.13
2019-02-24T05:44:16.140Z,21.00
2019-02-24T05:47:29.990Z,16.23
2019-02-24T05:50:43.795Z,18.43
2019-02-24T05:53:57.643Z,19.40
2019-02-24T05:57:11.475Z,18.60
2019-02-24T06:00:25.382Z,18.37
2019-02-24T06:03:39.226Z,17.00
2019-02-24T06:06:53.048Z,18.53
2019-02-24T06:10:07.004Z,17.77
2019-02-24T06:13:20.847Z,16.97
2019-02-24T06:16:34.684Z,17.17
2019-02-24T06:19:48.519Z,15.67
2019-02-24T06:23:02.392Z,17.40
2019-02-24T06:26:16.350Z,15.63
2019-02-24T06:29:30.195Z,16.63
2019-02-24T06:32:44.021Z,15.03
2019-02-24T06:35:57.883Z,14.97
2019-02-24T06:39:11.721Z,13.03
2019-02-24T06:42:25.570Z,15.67
2019-02-24T06:45:39.434Z,15.10
2019-02-24T06:48:53.369Z,13.17
2019-02-24T06:52:07.220Z,13.73
2019-02-24T06:55:21.065Z,18.23
2019-02-24T06:58:34.885Z,13.00
2019-02-24T07:01:48.752Z,12.87
2019-02-24T07:05:05.376Z,15.83
2019-02-24T07:08:19.250Z,11.73
2019-02-24T07:11:33.105Z,14.70
2019-02-24T07:14:46.956Z,13.30
2019-02-24T07:18:01.093Z,13.93
2019-02-24T07:21:15.052Z,15.47
2019-02-24T07:24:28.892Z,10.93
2019-02-24T07:27:43.268Z,12.13
2019-02-24T07:30:57.078Z,12.23
2019-02-24T07:34:10.934Z,15.73
2019-02-24T07:37:24.902Z,12.40
2019-02-24T07:40:38.709Z,14.97
2019-02-24T07:43:52.567Z,11.60
2019-02-24T07:47:06.452Z,13.67
2019-02-24T07:50:20.331Z,11.67
2019-02-24T07:53:34.191Z,12.70
2019-02-24T07:56:48.135Z,13.53
2019-02-24T08:00:02.496Z,14.53
2019-02-24T08:03:16.348Z,11.27
2019-02-24T08:06:30.180Z,13.67
2019-02-24T08:09:44.200Z,13.30
2019-02-24T08:12:58.053Z,11.23
2019-02-24T08:16:11.899Z,11.80
2019-02-24T08:19:25.731Z,10.73
2019-02-24T08:22:39.621Z,10.17
2019-02-24T08:25:53.508Z,11.37
2019-02-24T08:29:07.400Z,10.43
2019-02-24T08:32:21.221Z,9.77
2019-02-24T08:35:35.069Z,13.13
2019-02-24T08:38:48.931Z,10.13
2019-02-24T08:42:02.751Z,13.07
2019-02-24T08:45:16.727Z,12.40
2019-02-24T08:48:30.549Z,13.17
2019-02-24T08:51:44.413Z,12.60
2019-02-24T08:54:58.575Z,11.30
2019-02-24T08:58:12.504Z,12.77
2019-02-24T09:01:26.364Z,12.20
2019-02-24T09:04:40.313Z,11.57
2019-02-24T09:07:54.153Z,10.40
2019-02-24T09:11:08.066Z,11.87
2019-02-24T09:14:21.893Z,11.80
2019-02-24T09:17:35.750Z,13.67
2019-02-24T09:20:49.616Z,10.03
2019-02-24T09:24:03.587Z,11.60
2019-02-24T09:27:17.458Z,11.60
2019-02-24T09:30:31.309Z,9.23
2019-02-24T09:33:45.240Z,11.87
2019-02-24T09:36:59.091Z,10.17
2019-02-24T09:40:13.138Z,9.57
2019-02-24T09:43:27.015Z,10.27
2019-02-24T09:46:40.909Z,9.33
2019-02-24T09:49:54.741Z,12.70
2019-02-24T09:53:08.594Z,9.77
2019-02-24T09:56:22.485Z,10.70
2019-02-24T09:59:36.297Z,10.97
2019-02-24T10:02:50.192Z,9.27
2019-02-24T10:06:04.220Z,11.53
2019-02-24T10:09:18.330Z,10.93
2019-02-24T10:12:32.474Z,11.38
2019-02-24T10:15:46.319Z,10.57
2019-02-24T10:19:00.280Z,8.67
2019-02-24T10:22:14.189Z,10.30
2019-02-24T10:25:28.189Z,10.33
2019-02-24T10:28:42.041Z,10.15
2019-02-24T10:31:55.972Z,8.80
2019-02-24T10:35:09.920Z,9.50
2019-02-24T10:38:23.791Z,7.22
2019-02-24T10:41:37.658Z,11.28
2019-02-24T10:44:51.596Z,6.97
2019-02-24T10:48:13.778Z,7.30
2019-02-24T10:51:21.256Z,6.90
2019-02-24T10:54:35.099Z,6.75
2019-02-24T10:57:48.948Z,5.45
2019-02-24T11:01:03.728Z,6.15
2019-02-24T11:04:17.711Z,5.83
2019-02-24T11:07:31.535Z,5.80
2019-02-24T11:10:45.443Z,5.60
2019-02-24T11:13:59.386Z,5.47
2019-02-24T11:17:13.345Z,5.20
2019-02-24T11:20:27.209Z,5.92
2019-02-24T11:23:41.166Z,6.25
2019-02-24T11:26:55.012Z,3.85
2019-02-24T11:30:12.917Z,4.00
2019-02-24T11:33:26.913Z,4.00
2019-02-24T11:36:40.778Z,6.60
2019-02-24T11:39:54.639Z,5.40
2019-02-24T11:43:08.502Z,3.90
2019-02-24T11:46:22.419Z,4.47
2019-02-24T11:49:36.254Z,4.97
2019-02-24T11:52:50.251Z,5.08
2019-02-24T11:56:04.085Z,5.45
2019-02-24T11:59:18.178Z,4.50
2019-02-24T12:02:34.744Z,4.22
2019-02-24T12:05:48.033Z,4.72
2019-02-24T12:09:05.211Z,3.62
2019-02-24T12:12:17.873Z,3.40
2019-02-24T12:15:31.801Z,3.95
2019-02-24T12:18:45.672Z,3.10
2019-02-24T12:21:59.548Z,4.10
2019-02-24T12:25:13.470Z,4.30
2019-02-24T12:28:27.317Z,3.85
2019-02-24T12:31:41.157Z,5.08
2019-02-24T12:34:55.012Z,2.83
2019-02-24T12:38:08.904Z,3.80
2019-02-24T12:41:22.982Z,3.65
2019-02-24T12:44:36.953Z,3.10
2019-02-24T12:47:50.834Z,5.95
2019-02-24T12:51:04.776Z,4.22
2019-02-24T12:54:18.758Z,3.25
2019-02-24T12:57:32.599Z,4.95
2019-02-24T13:00:46.846Z,3.92
2019-02-24T13:04:00.689Z,2.95
2019-02-24T13:07:15.081Z,3.17
2019-02-24T13:10:29.253Z,2.75
2019-02-24T13:13:43.084Z,5.50
2019-02-24T13:16:57.388Z,3.05
2019-02-24T13:20:11.583Z,2.75
2019-02-24T13:23:25.425Z,3.52
2019-02-24T13:26:39.419Z,3.15
2019-02-24T13:29:53.248Z,2.65
2019-02-24T13:33:08.765Z,2.45
2019-02-24T13:36:22.616Z,2.90
2019-02-24T13:39:36.483Z,2.83
2019-02-24T13:42:50.317Z,2.55
2019-02-24T13:46:04.284Z,2.20
2019-02-24T13:49:18.146Z,2.47
2019-02-24T13:52:32.032Z,2.80
2019-02-24T13:55:45.926Z,3.33
2019-02-24T13:58:59.870Z,2.90
2019-02-24T14:02:13.737Z,3.15
2019-02-24T14:05:27.568Z,3.20
2019-02-24T14:08:41.553Z,3.02
2019-02-24T14:11:55.433Z,3.65
2019-02-24T14:15:13.249Z,2.50
2019-02-24T14:18:27.089Z,2.62
2019-02-24T14:21:40.943Z,2.70
2019-02-24T14:24:54.804Z,2.50
2019-02-24T14:28:10.000Z,2.52
2019-02-24T14:31:23.828Z,2.25
2019-02-24T14:34:37.784Z,2.37
2019-02-24T14:37:51.629Z,2.58
2019-02-24T14:41:05.485Z,3.25
2019-02-24T14:44:19.375Z,2.35
2019-02-24T14:47:33.309Z,4.33
2019-02-24T14:50:47.194Z,2.62
2019-02-24T14:54:01.070Z,2.75
2019-02-24T14:57:14.920Z,3.60
2019-02-24T15:00:28.887Z,4.80
2019-02-24T15:03:42.791Z,2.80
2019-02-24T15:06:56.731Z,4.15
2019-02-24T15:10:16.334Z,3.50
2019-02-24T15:13:30.331Z,3.25
2019-02-24T15:16:44.160Z,3.15
2019-02-24T15:19:58.032Z,4.47
2019-02-24T15:23:11.879Z,4.35
2019-02-24T15:26:25.862Z,6.78
2019-02-24T15:29:39.738Z,3.55
2019-02-24T15:32:53.679Z,4.00
2019-02-24T15:36:07.771Z,3.27
2019-02-24T15:39:21.711Z,2.72
2019-02-24T15:42:35.553Z,2.92
2019-02-24T15:45:49.427Z,3.10
2019-02-24T15:49:03.314Z,4.47
2019-02-24T15:52:17.163Z,3.25
2019-02-24T15:55:31.179Z,3.95
2019-02-24T15:58:45.075Z,6.12
2019-02-24T16:01:58.930Z,5.28
2019-02-24T16:05:12.864Z,4.53
2019-02-24T16:08:26.727Z,6.78
2019-02-24T16:11:40.592Z,7.47
2019-02-24T16:14:56.471Z,6.55
2019-02-24T16:18:10.469Z,5.42
2019-02-24T16:21:24.359Z,7.35
2019-02-24T16:24:38.284Z,6.75
2019-02-24T16:27:53.379Z,7.28
2019-02-24T16:31:07.392Z,6.28
2019-02-24T16:34:21.340Z,5.40
2019-02-24T16:37:35.527Z,6.25
2019-02-24T16:40:49.492Z,5.28
2019-02-24T16:44:03.675Z,5.45
2019-02-24T16:47:17.593Z,8.13
2019-02-24T16:50:31.480Z,5.65
2019-02-24T16:53:45.355Z,8.70
2019-02-24T16:57:05.107Z,8.70
2019-02-24T17:00:21.713Z,7.78
2019-02-24T17:03:36.116Z,5.77
2019-02-24T17:06:49.953Z,7.70
2019-02-24T17:10:10.143Z,6.08
2019-02-24T17:13:24.033Z,8.00
2019-02-24T17:16:38.090Z,6.37
2019-02-24T17:19:52.009Z,6.58
2019-02-24T17:23:05.980Z,8.55
2019-02-24T17:26:19.876Z,7.43
2019-02-24T17:29:33.757Z,10.13
2019-02-24T17:32:47.635Z,7.87
2019-02-24T17:36:01.575Z,11.30
2019-02-24T17:39:15.549Z,9.30
2019-02-24T17:42:29.410Z,9.53
2019-02-24T17:45:44.877Z,10.23
2019-02-24T17:48:59.226Z,8.63
2019-02-24T17:52:13.109Z,5.90
2019-02-24T17:55:27.077Z,12.47
2019-02-24T17:58:41.020Z,8.70
2019-02-24T18:01:54.883Z,11.90
2019-02-24T18:05:08.754Z,10.73
2019-02-24T18:08:28.281Z,13.47
2019-02-24T18:11:38.977Z,12.60
2019-02-24T18:14:52.811Z,13.10
2019-02-24T18:18:06.784Z,14.07
2019-02-24T18:21:20.693Z,11.40
2019-02-24T18:24:34.586Z,17.53
2019-02-24T18:27:48.588Z,16.93
2019-02-24T18:31:02.523Z,18.33
2019-02-24T18:34:16.519Z,18.83
2019-02-24T18:37:30.382Z,19.90
2019-02-24T18:40:44.351Z,20.83
2019-02-24T18:43:58.248Z,25.43
2019-02-24T18:47:12.333Z,20.33
2019-02-24T18:50:26.264Z,26.60
2019-02-24T18:53:40.151Z,21.10
2019-02-24T18:56:54.003Z,21.97
2019-02-24T19:00:17.133Z,23.80
2019-02-24T19:03:31.015Z,26.37
2019-02-24T19:06:44.883Z,22.30
2019-02-24T19:09:58.793Z,24.50
2019-02-24T19:13:12.771Z,16.80
2019-02-24T19:16:26.848Z,15.17
2019-02-24T19:19:40.744Z,10.70
2019-02-24T19:22:54.707Z,13.37
2019-02-24T19:26:08.910Z,11.73
2019-02-24T19:29:22.898Z,11.13
2019-02-24T19:32:36.766Z,7.90
2019-02-24T19:35:50.792Z,10.87
2019-02-24T19:39:05.562Z,11.07
2019-02-24T19:42:19.548Z,16.33
2019-02-24T19:45:33.535Z,13.20
2019-02-24T19:48:47.445Z,15.90
2019-02-24T19:52:01.345Z,14.27
2019-02-24T19:55:16.533Z,14.73
2019-02-24T19:58:30.508Z,17.07
2019-02-24T20:01:44.392Z,19.67
2019-02-24T20:04:58.334Z,16.20
2019-02-24T20:08:12.290Z,17.87
2019-02-24T20:11:26.174Z,16.13
2019-02-24T20:14:41.451Z,16.17
2019-02-24T20:17:55.327Z,16.17
2019-02-24T20:21:09.346Z,15.37
2019-02-24T20:24:23.285Z,20.33
2019-02-24T20:27:37.223Z,15.80
2019-02-24T20:30:51.194Z,14.47
2019-02-24T20:34:05.179Z,13.67
2019-02-24T20:37:19.258Z,15.90
2019-02-24T20:40:33.113Z,17.33
2019-02-24T20:43:47.072Z,16.80
2019-02-24T20:47:02.256Z,14.07
2019-02-24T20:50:25.172Z,15.03
2019-02-24T20:53:39.057Z,21.30
2019-02-24T20:56:53.030Z,27.77
2019-02-24T21:00:16.707Z,25.30
2019-02-24T21:03:30.801Z,21.70
2019-02-24T21:06:44.665Z,20.80
2019-02-24T21:09:58.532Z,21.53
2019-02-24T21:13:12.395Z,20.23
2019-02-24T21:16:26.477Z,17.23
2019-02-24T21:19:40.335Z,15.30
2019-02-24T21:22:54.377Z,16.07
2019-02-24T21:26:08.301Z,20.07
2019-02-24T21:29:22.288Z,20.80
2019-02-24T21:32:36.213Z,20.37
2019-02-24T21:35:50.069Z,20.37
2019-02-24T21:39:04.575Z,20.50
2019-02-24T21:42:18.444Z,25.27
2019-02-24T21:45:32.416Z,16.37
2019-02-24T21:48:46.568Z,17.43
2019-02-24T21:52:00.404Z,16.40
2019-02-24T21:55:14.700Z,17.13
2019-02-24T21:58:28.513Z,19.13
2019-02-24T22:01:42.375Z,17.27
2019-02-24T22:04:56.340Z,17.47
2019-02-24T22:08:10.187Z,19.40
2019-02-24T22:11:24.166Z,15.30
2019-02-24T22:14:38.020Z,18.30
2019-02-24T22:17:51.933Z,17.47
2019-02-24T22:21:05.800Z,22.43
2019-02-24T22:24:19.609Z,19.50
2019-02-24T22:27:33.493Z,19.30
2019-02-24T22:30:47.441Z,22.43
2019-02-24T22:34:01.301Z,17.87
2019-02-24T22:37:15.248Z,19.23
2019-02-24T22:40:29.237Z,19.83
2019-02-24T22:43:43.072Z,23.00
2019-02-24T22:46:57.368Z,24.60
2019-02-24T22:50:12.334Z,17.97
2019-02-24T22:53:26.181Z,17.43
2019-02-24T22:56:40.038Z,23.97
2019-02-24T22:59:53.856Z,16.53
2019-02-24T23:03:07.818Z,18.73
2019-02-24T23:06:21.795Z,13.30
2019-02-24T23:09:35.658Z,19.07
2019-02-24T23:12:49.515Z,16.47
2019-02-24T23:16:03.449Z,17.30
2019-02-24T23:19:17.310Z,13.70
2019-02-24T23:22:31.185Z,15.43
2019-02-24T23:25:45.159Z,14.63
2019-02-24T23:28:59.396Z,14.83
2019-02-24T23:32:13.326Z,16.17
2019-02-24T23:35:27.344Z,13.73
2019-02-24T23:38:41.197Z,15.90
2019-02-24T23:41:55.011Z,13.20
2019-02-24T23:45:11.366Z,13.60
2019-02-24T23:48:25.323Z,12.00
2019-02-24T23:51:39.146Z,15.53
2019-02-24T23:54:53.115Z,15.97
2019-02-24T23:58:06.931Z,13.07
